sensor_id;sensor_type;location;lat;lon;timestamp;P1;durP1;ratioP1;P2;durP2;ratioP2
2854;SDS011;1435;49.472;10.940;2023-02-01T00:04:28;4.90;;;4.20;;
2854;SDS011;1435;49.472;10.940;2023-02-01T00:09:31;5.07;;;4.57;;
2854;SDS011;1435;49.472;10.940;2023-02-01T00:14:33;5.50;;;5.00;;
2854;SDS011;1435;49.472;10.940;2023-02-01T00:19:38;4.80;;;4.30;;
2854;SDS011;1435;49.472;10.940;2023-02-01T00:24:41;5.80;;;5.23;;
2854;SDS011;1435;49.472;10.940;2023-02-01T00:29:43;6.27;;;4.90;;
2854;SDS011;1435;49.472;10.940;2023-02-01T00:34:45;8.53;;;4.43;;
2854;SDS011;1435;49.472;10.940;2023-02-01T00:39:48;4.63;;;4.13;;
2854;SDS011;1435;49.472;10.940;2023-02-01T00:44:50;4.60;;;4.20;;
2854;SDS011;1435;49.472;10.940;2023-02-01T00:49:52;5.60;;;4.43;;
2854;SDS011;1435;49.472;10.940;2023-02-01T00:54:55;4.57;;;4.17;;
2854;SDS011;1435;49.472;10.940;2023-02-01T00:59:57;5.77;;;4.70;;
2854;SDS011;1435;49.472;10.940;2023-02-01T01:04:58;5.00;;;4.50;;
2854;SDS011;1435;49.472;10.940;2023-02-01T01:10:02;4.13;;;3.83;;
2854;SDS011;1435;49.472;10.940;2023-02-01T01:15:04;4.60;;;4.20;;
2854;SDS011;1435;49.472;10.940;2023-02-01T01:20:07;6.27;;;4.07;;
2854;SDS011;1435;49.472;10.940;2023-02-01T01:25:11;4.73;;;4.33;;
2854;SDS011;1435;49.472;10.940;2023-02-01T01:30:13;5.03;;;4.63;;
2854;SDS011;1435;49.472;10.940;2023-02-01T01:35:15;5.00;;;4.57;;
2854;SDS011;1435;49.472;10.940;2023-02-01T01:40:18;5.57;;;4.90;;
2854;SDS011;1435;49.472;10.940;2023-02-01T01:45:22;4.77;;;4.17;;
2854;SDS011;1435;49.472;10.940;2023-02-01T01:50:26;4.93;;;4.30;;
2854;SDS011;1435;49.472;10.940;2023-02-01T01:55:32;4.57;;;3.90;;
2854;SDS011;1435;49.472;10.940;2023-02-01T02:00:36;4.57;;;4.10;;
2854;SDS011;1435;49.472;10.940;2023-02-01T02:05:39;4.70;;;3.93;;
2854;SDS011;1435;49.472;10.940;2023-02-01T02:10:42;3.93;;;3.63;;
2854;SDS011;1435;49.472;10.940;2023-02-01T02:16:12;5.03;;;4.53;;
2854;SDS011;1435;49.472;10.940;2023-02-01T02:21:40;6.10;;;4.07;;
2854;SDS011;1435;49.472;10.940;2023-02-01T02:26:57;4.50;;;4.10;;
2854;SDS011;1435;49.472;10.940;2023-02-01T02:32:32;3.87;;;3.53;;
2854;SDS011;1435;49.472;10.940;2023-02-01T02:38:05;5.23;;;4.23;;
2854;SDS011;1435;49.472;10.940;2023-02-01T02:43:15;4.93;;;4.40;;
2854;SDS011;1435;49.472;10.940;2023-02-01T02:48:42;5.20;;;4.40;;
2854;SDS011;1435;49.472;10.940;2023-02-01T02:53:52;4.30;;;3.90;;
2854;SDS011;1435;49.472;10.940;2023-02-01T02:59:17;5.30;;;4.73;;
2854;SDS011;1435;49.472;10.940;2023-02-01T03:04:40;5.03;;;4.50;;
2854;SDS011;1435;49.472;10.940;2023-02-01T03:09:44;5.77;;;3.83;;
2854;SDS011;1435;49.472;10.940;2023-02-01T03:14:49;4.93;;;4.43;;
2854;SDS011;1435;49.472;10.940;2023-02-01T03:19:55;4.90;;;4.50;;
2854;SDS011;1435;49.472;10.940;2023-02-01T03:25:04;6.47;;;5.00;;
2854;SDS011;1435;49.472;10.940;2023-02-01T03:30:10;6.77;;;4.50;;
2854;SDS011;1435;49.472;10.940;2023-02-01T03:35:17;5.40;;;4.90;;
2854;SDS011;1435;49.472;10.940;2023-02-01T03:40:25;7.97;;;5.87;;
2854;SDS011;1435;49.472;10.940;2023-02-01T03:45:31;7.00;;;5.47;;
2854;SDS011;1435;49.472;10.940;2023-02-01T03:50:39;5.60;;;5.10;;
2854;SDS011;1435;49.472;10.940;2023-02-01T03:55:48;8.20;;;5.57;;
2854;SDS011;1435;49.472;10.940;2023-02-01T04:00:53;5.50;;;5.00;;
2854;SDS011;1435;49.472;10.940;2023-02-01T04:05:56;6.90;;;6.17;;
2854;SDS011;1435;49.472;10.940;2023-02-01T04:10:59;5.10;;;4.70;;
2854;SDS011;1435;49.472;10.940;2023-02-01T04:16:01;9.33;;;5.53;;
2854;SDS011;1435;49.472;10.940;2023-02-01T04:21:02;7.07;;;5.37;;
2854;SDS011;1435;49.472;10.940;2023-02-01T04:26:06;5.80;;;5.13;;
2854;SDS011;1435;49.472;10.940;2023-02-01T04:31:07;6.63;;;6.03;;
2854;SDS011;1435;49.472;10.940;2023-02-01T04:36:09;6.03;;;5.43;;
2854;SDS011;1435;49.472;10.940;2023-02-01T04:41:12;7.67;;;6.87;;
2854;SDS011;1435;49.472;10.940;2023-02-01T04:46:14;6.17;;;5.57;;
2854;SDS011;1435;49.472;10.940;2023-02-01T04:51:16;6.60;;;5.60;;
2854;SDS011;1435;49.472;10.940;2023-02-01T04:56:19;7.40;;;5.37;;
2854;SDS011;1435;49.472;10.940;2023-02-01T05:01:21;5.90;;;5.30;;
2854;SDS011;1435;49.472;10.940;2023-02-01T05:06:24;6.73;;;5.50;;
2854;SDS011;1435;49.472;10.940;2023-02-01T05:11:27;6.37;;;5.53;;
2854;SDS011;1435;49.472;10.940;2023-02-01T05:16:46;6.23;;;4.97;;
2854;SDS011;1435;49.472;10.940;2023-02-01T05:21:48;6.27;;;5.77;;
2854;SDS011;1435;49.472;10.940;2023-02-01T05:26:52;7.60;;;5.57;;
2854;SDS011;1435;49.472;10.940;2023-02-01T05:31:53;6.20;;;5.13;;
2854;SDS011;1435;49.472;10.940;2023-02-01T05:36:55;5.20;;;4.00;;
2854;SDS011;1435;49.472;10.940;2023-02-01T05:41:58;6.63;;;5.63;;
2854;SDS011;1435;49.472;10.940;2023-02-01T05:47:00;6.50;;;5.70;;
2854;SDS011;1435;49.472;10.940;2023-02-01T05:52:02;4.50;;;4.10;;
2854;SDS011;1435;49.472;10.940;2023-02-01T05:57:05;3.43;;;2.87;;
2854;SDS011;1435;49.472;10.940;2023-02-01T06:02:07;3.50;;;2.80;;
2854;SDS011;1435;49.472;10.940;2023-02-01T06:07:10;3.40;;;2.63;;
2854;SDS011;1435;49.472;10.940;2023-02-01T06:12:13;2.50;;;2.30;;
2854;SDS011;1435;49.472;10.940;2023-02-01T06:17:15;2.50;;;2.33;;
2854;SDS011;1435;49.472;10.940;2023-02-01T06:22:17;2.57;;;2.37;;
2854;SDS011;1435;49.472;10.940;2023-02-01T06:27:20;2.97;;;2.27;;
2854;SDS011;1435;49.472;10.940;2023-02-01T06:32:22;2.33;;;2.00;;
2854;SDS011;1435;49.472;10.940;2023-02-01T06:37:23;2.53;;;1.90;;
2854;SDS011;1435;49.472;10.940;2023-02-01T06:42:28;1.70;;;1.60;;
2854;SDS011;1435;49.472;10.940;2023-02-01T06:47:30;2.23;;;2.03;;
2854;SDS011;1435;49.472;10.940;2023-02-01T06:52:32;1.77;;;1.67;;
2854;SDS011;1435;49.472;10.940;2023-02-01T06:57:35;2.33;;;1.93;;
2854;SDS011;1435;49.472;10.940;2023-02-01T07:02:37;3.70;;;1.67;;
2854;SDS011;1435;49.472;10.940;2023-02-01T07:07:39;1.90;;;1.80;;
2854;SDS011;1435;49.472;10.940;2023-02-01T07:12:42;2.20;;;2.00;;
2854;SDS011;1435;49.472;10.940;2023-02-01T07:17:44;1.93;;;1.83;;
2854;SDS011;1435;49.472;10.940;2023-02-01T07:22:47;2.63;;;2.43;;
2854;SDS011;1435;49.472;10.940;2023-02-01T07:27:50;3.40;;;2.60;;
2854;SDS011;1435;49.472;10.940;2023-02-01T07:32:52;2.23;;;2.03;;
2854;SDS011;1435;49.472;10.940;2023-02-01T07:37:54;6.43;;;2.60;;
2854;SDS011;1435;49.472;10.940;2023-02-01T07:42:59;3.37;;;1.93;;
2854;SDS011;1435;49.472;10.940;2023-02-01T07:48:00;2.70;;;2.50;;
2854;SDS011;1435;49.472;10.940;2023-02-01T07:53:02;3.80;;;2.10;;
2854;SDS011;1435;49.472;10.940;2023-02-01T07:58:05;4.00;;;2.40;;
2854;SDS011;1435;49.472;10.940;2023-02-01T08:03:07;3.00;;;1.90;;
2854;SDS011;1435;49.472;10.940;2023-02-01T08:08:09;2.50;;;2.30;;
2854;SDS011;1435;49.472;10.940;2023-02-01T08:13:12;2.30;;;2.10;;
2854;SDS011;1435;49.472;10.940;2023-02-01T08:18:14;2.60;;;2.27;;
2854;SDS011;1435;49.472;10.940;2023-02-01T08:23:17;4.80;;;2.57;;
2854;SDS011;1435;49.472;10.940;2023-02-01T08:28:21;4.10;;;2.50;;
2854;SDS011;1435;49.472;10.940;2023-02-01T08:33:23;2.53;;;2.10;;
2854;SDS011;1435;49.472;10.940;2023-02-01T08:38:25;3.10;;;2.37;;
2854;SDS011;1435;49.472;10.940;2023-02-01T08:43:28;3.57;;;2.27;;
2854;SDS011;1435;49.472;10.940;2023-02-01T08:48:30;2.43;;;2.23;;
2854;SDS011;1435;49.472;10.940;2023-02-01T08:53:31;3.23;;;2.73;;
2854;SDS011;1435;49.472;10.940;2023-02-01T08:58:35;2.93;;;2.73;;
2854;SDS011;1435;49.472;10.940;2023-02-01T09:03:36;3.63;;;2.97;;
2854;SDS011;1435;49.472;10.940;2023-02-01T09:08:38;3.23;;;3.03;;
2854;SDS011;1435;49.472;10.940;2023-02-01T09:13:42;4.20;;;2.87;;
2854;SDS011;1435;49.472;10.940;2023-02-01T09:18:43;4.90;;;2.40;;
2854;SDS011;1435;49.472;10.940;2023-02-01T09:23:45;3.73;;;2.30;;
2854;SDS011;1435;49.472;10.940;2023-02-01T09:28:50;5.50;;;2.50;;
2854;SDS011;1435;49.472;10.940;2023-02-01T09:33:51;3.23;;;1.90;;
2854;SDS011;1435;49.472;10.940;2023-02-01T09:38:53;2.70;;;1.37;;
2854;SDS011;1435;49.472;10.940;2023-02-01T09:43:58;1.60;;;1.50;;
2854;SDS011;1435;49.472;10.940;2023-02-01T09:49:10;7.00;;;2.27;;
2854;SDS011;1435;49.472;10.940;2023-02-01T09:54:17;2.13;;;1.93;;
2854;SDS011;1435;49.472;10.940;2023-02-01T09:59:29;4.37;;;1.60;;
2854;SDS011;1435;49.472;10.940;2023-02-01T10:04:35;3.00;;;2.23;;
2854;SDS011;1435;49.472;10.940;2023-02-01T10:15:05;10.33;;;5.63;;
2854;SDS011;1435;49.472;10.940;2023-02-01T10:20:21;4.87;;;3.00;;
2854;SDS011;1435;49.472;10.940;2023-02-01T10:25:30;5.73;;;3.30;;
2854;SDS011;1435;49.472;10.940;2023-02-01T10:30:39;7.83;;;4.23;;
2854;SDS011;1435;49.472;10.940;2023-02-01T10:35:44;7.90;;;4.80;;
2854;SDS011;1435;49.472;10.940;2023-02-01T10:40:47;6.80;;;4.13;;
2854;SDS011;1435;49.472;10.940;2023-02-01T10:45:50;7.17;;;3.90;;
2854;SDS011;1435;49.472;10.940;2023-02-01T10:50:53;4.60;;;3.30;;
2854;SDS011;1435;49.472;10.940;2023-02-01T10:56:01;7.00;;;3.97;;
2854;SDS011;1435;49.472;10.940;2023-02-01T11:01:09;5.17;;;3.37;;
2854;SDS011;1435;49.472;10.940;2023-02-01T11:06:27;5.20;;;2.70;;
2854;SDS011;1435;49.472;10.940;2023-02-01T11:11:30;6.03;;;3.57;;
2854;SDS011;1435;49.472;10.940;2023-02-01T11:16:35;4.03;;;2.40;;
2854;SDS011;1435;49.472;10.940;2023-02-01T11:21:38;6.83;;;3.50;;
2854;SDS011;1435;49.472;10.940;2023-02-01T11:26:43;5.33;;;3.17;;
2854;SDS011;1435;49.472;10.940;2023-02-01T11:31:46;8.57;;;3.50;;
2854;SDS011;1435;49.472;10.940;2023-02-01T11:36:49;6.50;;;3.27;;
2854;SDS011;1435;49.472;10.940;2023-02-01T11:42:03;6.47;;;4.50;;
2854;SDS011;1435;49.472;10.940;2023-02-01T11:47:19;8.03;;;2.70;;
2854;SDS011;1435;49.472;10.940;2023-02-01T11:52:29;6.23;;;3.30;;
2854;SDS011;1435;49.472;10.940;2023-02-01T11:57:43;8.00;;;4.17;;
2854;SDS011;1435;49.472;10.940;2023-02-01T12:03:10;9.53;;;3.17;;
2854;SDS011;1435;49.472;10.940;2023-02-01T12:08:30;5.83;;;3.20;;
2854;SDS011;1435;49.472;10.940;2023-02-01T12:13:48;6.77;;;3.27;;
2854;SDS011;1435;49.472;10.940;2023-02-01T12:24:29;4.10;;;2.60;;
2854;SDS011;1435;49.472;10.940;2023-02-01T12:30:02;7.27;;;3.30;;
2854;SDS011;1435;49.472;10.940;2023-02-01T12:35:30;3.77;;;2.87;;
2854;SDS011;1435;49.472;10.940;2023-02-01T12:40:56;5.13;;;2.90;;
2854;SDS011;1435;49.472;10.940;2023-02-01T12:46:10;4.60;;;3.70;;
2854;SDS011;1435;49.472;10.940;2023-02-01T12:51:19;7.03;;;3.30;;
2854;SDS011;1435;49.472;10.940;2023-02-01T12:56:25;6.87;;;3.33;;
2854;SDS011;1435;49.472;10.940;2023-02-01T13:01:31;12.17;;;3.53;;
2854;SDS011;1435;49.472;10.940;2023-02-01T13:06:38;3.80;;;2.57;;
2854;SDS011;1435;49.472;10.940;2023-02-01T13:11:44;6.10;;;2.93;;
2854;SDS011;1435;49.472;10.940;2023-02-01T13:16:48;5.77;;;2.67;;
2854;SDS011;1435;49.472;10.940;2023-02-01T13:21:55;4.53;;;2.93;;
2854;SDS011;1435;49.472;10.940;2023-02-01T13:27:01;7.03;;;3.70;;
2854;SDS011;1435;49.472;10.940;2023-02-01T13:32:16;4.93;;;2.80;;
2854;SDS011;1435;49.472;10.940;2023-02-01T13:43:01;6.43;;;3.40;;
2854;SDS011;1435;49.472;10.940;2023-02-01T13:48:14;4.60;;;2.97;;
2854;SDS011;1435;49.472;10.940;2023-02-01T13:53:25;6.67;;;2.80;;
2854;SDS011;1435;49.472;10.940;2023-02-01T13:58:30;9.60;;;3.50;;
2854;SDS011;1435;49.472;10.940;2023-02-01T14:03:44;4.97;;;2.60;;
2854;SDS011;1435;49.472;10.940;2023-02-01T14:09:10;6.03;;;3.30;;
2854;SDS011;1435;49.472;10.940;2023-02-01T14:19:45;5.60;;;2.40;;
2854;SDS011;1435;49.472;10.940;2023-02-01T14:24:50;4.73;;;2.17;;
2854;SDS011;1435;49.472;10.940;2023-02-01T14:29:55;4.10;;;2.40;;
2854;SDS011;1435;49.472;10.940;2023-02-01T14:35:00;7.83;;;2.43;;
2854;SDS011;1435;49.472;10.940;2023-02-01T14:40:05;3.83;;;2.93;;
2854;SDS011;1435;49.472;10.940;2023-02-01T14:50:50;5.67;;;2.30;;
2854;SDS011;1435;49.472;10.940;2023-02-01T14:55:55;10.20;;;3.40;;
2854;SDS011;1435;49.472;10.940;2023-02-01T15:01:02;9.33;;;2.53;;
2854;SDS011;1435;49.472;10.940;2023-02-01T15:06:23;6.87;;;3.60;;
2854;SDS011;1435;49.472;10.940;2023-02-01T15:11:28;9.77;;;2.70;;
2854;SDS011;1435;49.472;10.940;2023-02-01T15:16:30;9.23;;;2.90;;
2854;SDS011;1435;49.472;10.940;2023-02-01T15:21:32;6.13;;;2.60;;
2854;SDS011;1435;49.472;10.940;2023-02-01T15:26:46;7.47;;;2.90;;
2854;SDS011;1435;49.472;10.940;2023-02-01T15:31:48;4.03;;;2.00;;
2854;SDS011;1435;49.472;10.940;2023-02-01T15:36:52;5.47;;;2.83;;
2854;SDS011;1435;49.472;10.940;2023-02-01T15:42:10;3.97;;;2.20;;
2854;SDS011;1435;49.472;10.940;2023-02-01T15:47:16;4.10;;;2.50;;
2854;SDS011;1435;49.472;10.940;2023-02-01T15:52:21;5.40;;;2.80;;
2854;SDS011;1435;49.472;10.940;2023-02-01T15:57:27;4.30;;;2.30;;
2854;SDS011;1435;49.472;10.940;2023-02-01T16:02:33;3.60;;;2.90;;
2854;SDS011;1435;49.472;10.940;2023-02-01T16:07:37;10.70;;;3.20;;
2854;SDS011;1435;49.472;10.940;2023-02-01T16:12:46;3.90;;;2.00;;
2854;SDS011;1435;49.472;10.940;2023-02-01T16:17:48;4.30;;;2.30;;
2854;SDS011;1435;49.472;10.940;2023-02-01T16:22:50;7.80;;;2.37;;
2854;SDS011;1435;49.472;10.940;2023-02-01T16:27:53;5.03;;;3.07;;
2854;SDS011;1435;49.472;10.940;2023-02-01T16:32:55;6.13;;;2.40;;
2854;SDS011;1435;49.472;10.940;2023-02-01T16:37:58;4.87;;;2.90;;
2854;SDS011;1435;49.472;10.940;2023-02-01T16:43:01;6.73;;;2.50;;
2854;SDS011;1435;49.472;10.940;2023-02-01T16:48:03;8.60;;;3.00;;
2854;SDS011;1435;49.472;10.940;2023-02-01T16:53:05;5.23;;;2.37;;
2854;SDS011;1435;49.472;10.940;2023-02-01T16:58:11;5.67;;;2.20;;
2854;SDS011;1435;49.472;10.940;2023-02-01T17:03:14;5.00;;;2.60;;
2854;SDS011;1435;49.472;10.940;2023-02-01T17:08:17;3.10;;;1.97;;
2854;SDS011;1435;49.472;10.940;2023-02-01T17:13:24;2.50;;;2.13;;
2854;SDS011;1435;49.472;10.940;2023-02-01T17:18:26;5.83;;;2.50;;
2854;SDS011;1435;49.472;10.940;2023-02-01T17:23:31;5.13;;;2.40;;
2854;SDS011;1435;49.472;10.940;2023-02-01T17:28:35;7.70;;;2.93;;
2854;SDS011;1435;49.472;10.940;2023-02-01T17:33:36;9.43;;;2.60;;
2854;SDS011;1435;49.472;10.940;2023-02-01T17:38:38;6.53;;;2.30;;
2854;SDS011;1435;49.472;10.940;2023-02-01T17:43:41;2.90;;;2.10;;
2854;SDS011;1435;49.472;10.940;2023-02-01T17:48:43;8.30;;;2.57;;
2854;SDS011;1435;49.472;10.940;2023-02-01T17:53:45;5.83;;;2.47;;
2854;SDS011;1435;49.472;10.940;2023-02-01T17:58:48;5.30;;;2.60;;
2854;SDS011;1435;49.472;10.940;2023-02-01T18:03:50;6.53;;;2.53;;
2854;SDS011;1435;49.472;10.940;2023-02-01T18:08:52;7.67;;;2.33;;
2854;SDS011;1435;49.472;10.940;2023-02-01T18:13:55;5.13;;;2.77;;
2854;SDS011;1435;49.472;10.940;2023-02-01T18:18:57;5.50;;;3.07;;
2854;SDS011;1435;49.472;10.940;2023-02-01T18:24:01;9.27;;;3.20;;
2854;SDS011;1435;49.472;10.940;2023-02-01T18:29:04;6.07;;;2.87;;
2854;SDS011;1435;49.472;10.940;2023-02-01T18:34:07;3.60;;;3.00;;
2854;SDS011;1435;49.472;10.940;2023-02-01T18:39:15;9.93;;;3.03;;
2854;SDS011;1435;49.472;10.940;2023-02-01T18:44:18;8.13;;;2.70;;
2854;SDS011;1435;49.472;10.940;2023-02-01T18:49:20;6.83;;;3.07;;
2854;SDS011;1435;49.472;10.940;2023-02-01T18:54:22;11.30;;;3.73;;
2854;SDS011;1435;49.472;10.940;2023-02-01T18:59:25;8.80;;;3.07;;
2854;SDS011;1435;49.472;10.940;2023-02-01T19:04:27;3.83;;;2.33;;
2854;SDS011;1435;49.472;10.940;2023-02-01T19:09:29;7.17;;;3.03;;
2854;SDS011;1435;49.472;10.940;2023-02-01T19:14:32;11.87;;;5.73;;
2854;SDS011;1435;49.472;10.940;2023-02-01T19:19:34;4.47;;;2.93;;
2854;SDS011;1435;49.472;10.940;2023-02-01T19:24:37;8.53;;;3.40;;
2854;SDS011;1435;49.472;10.940;2023-02-01T19:29:40;5.80;;;3.30;;
2854;SDS011;1435;49.472;10.940;2023-02-01T19:34:45;6.40;;;2.90;;
2854;SDS011;1435;49.472;10.940;2023-02-01T19:39:46;5.00;;;2.80;;
2854;SDS011;1435;49.472;10.940;2023-02-01T19:44:50;8.93;;;4.53;;
2854;SDS011;1435;49.472;10.940;2023-02-01T19:49:51;8.83;;;3.13;;
2854;SDS011;1435;49.472;10.940;2023-02-01T19:54:53;9.73;;;3.20;;
2854;SDS011;1435;49.472;10.940;2023-02-01T19:59:56;4.80;;;3.30;;
2854;SDS011;1435;49.472;10.940;2023-02-01T20:04:58;9.53;;;3.07;;
2854;SDS011;1435;49.472;10.940;2023-02-01T20:10:00;4.10;;;2.07;;
2854;SDS011;1435;49.472;10.940;2023-02-01T20:15:04;5.30;;;3.07;;
2854;SDS011;1435;49.472;10.940;2023-02-01T20:20:08;10.57;;;3.03;;
2854;SDS011;1435;49.472;10.940;2023-02-01T20:25:11;6.90;;;3.50;;
2854;SDS011;1435;49.472;10.940;2023-02-01T20:30:15;7.13;;;2.90;;
2854;SDS011;1435;49.472;10.940;2023-02-01T20:35:18;7.07;;;3.10;;
2854;SDS011;1435;49.472;10.940;2023-02-01T20:40:20;10.97;;;3.03;;
2854;SDS011;1435;49.472;10.940;2023-02-01T20:45:23;9.03;;;2.93;;
2854;SDS011;1435;49.472;10.940;2023-02-01T20:50:26;4.43;;;2.93;;
2854;SDS011;1435;49.472;10.940;2023-02-01T20:55:27;11.17;;;4.00;;
2854;SDS011;1435;49.472;10.940;2023-02-01T21:00:31;4.63;;;2.70;;
2854;SDS011;1435;49.472;10.940;2023-02-01T21:05:33;4.57;;;2.33;;
2854;SDS011;1435;49.472;10.940;2023-02-01T21:10:40;6.00;;;3.10;;
2854;SDS011;1435;49.472;10.940;2023-02-01T21:15:43;8.50;;;3.23;;
2854;SDS011;1435;49.472;10.940;2023-02-01T21:20:46;3.50;;;3.10;;
2854;SDS011;1435;49.472;10.940;2023-02-01T21:25:48;4.90;;;3.07;;
2854;SDS011;1435;49.472;10.940;2023-02-01T21:30:51;4.23;;;3.30;;
2854;SDS011;1435;49.472;10.940;2023-02-01T21:35:53;6.03;;;2.60;;
2854;SDS011;1435;49.472;10.940;2023-02-01T21:40:56;7.40;;;3.00;;
2854;SDS011;1435;49.472;10.940;2023-02-01T21:46:16;4.57;;;2.50;;
2854;SDS011;1435;49.472;10.940;2023-02-01T21:51:18;4.90;;;2.93;;
2854;SDS011;1435;49.472;10.940;2023-02-01T21:56:20;9.47;;;3.40;;
2854;SDS011;1435;49.472;10.940;2023-02-01T22:01:23;7.33;;;3.97;;
2854;SDS011;1435;49.472;10.940;2023-02-01T22:06:26;4.70;;;2.63;;
2854;SDS011;1435;49.472;10.940;2023-02-01T22:11:29;6.93;;;3.00;;
2854;SDS011;1435;49.472;10.940;2023-02-01T22:16:32;8.63;;;3.53;;
2854;SDS011;1435;49.472;10.940;2023-02-01T22:21:34;8.10;;;2.90;;
2854;SDS011;1435;49.472;10.940;2023-02-01T22:26:36;5.10;;;2.80;;
2854;SDS011;1435;49.472;10.940;2023-02-01T22:31:40;5.17;;;2.90;;
2854;SDS011;1435;49.472;10.940;2023-02-01T22:36:42;6.47;;;2.70;;
2854;SDS011;1435;49.472;10.940;2023-02-01T22:41:44;5.23;;;2.60;;
2854;SDS011;1435;49.472;10.940;2023-02-01T22:46:47;3.83;;;2.43;;
2854;SDS011;1435;49.472;10.940;2023-02-01T22:51:49;5.60;;;2.87;;
2854;SDS011;1435;49.472;10.940;2023-02-01T22:56:51;10.83;;;3.70;;
2854;SDS011;1435;49.472;10.940;2023-02-01T23:01:54;8.03;;;3.03;;
2854;SDS011;1435;49.472;10.940;2023-02-01T23:06:56;9.70;;;3.53;;
2854;SDS011;1435;49.472;10.940;2023-02-01T23:11:59;10.10;;;3.47;;
2854;SDS011;1435;49.472;10.940;2023-02-01T23:17:02;4.67;;;2.73;;
2854;SDS011;1435;49.472;10.940;2023-02-01T23:22:03;5.30;;;2.50;;
2854;SDS011;1435;49.472;10.940;2023-02-01T23:27:05;4.00;;;2.37;;
2854;SDS011;1435;49.472;10.940;2023-02-01T23:32:08;3.00;;;2.00;;
2854;SDS011;1435;49.472;10.940;2023-02-01T23:37:10;7.57;;;2.83;;
2854;SDS011;1435;49.472;10.940;2023-02-01T23:42:12;5.23;;;2.67;;
2854;SDS011;1435;49.472;10.940;2023-02-01T23:47:15;8.27;;;3.50;;
2854;SDS011;1435;49.472;10.940;2023-02-01T23:52:17;7.47;;;2.70;;
2854;SDS011;1435;49.472;10.940;2023-02-01T23:57:18;9.37;;;2.93;;
